createdAt,value
2022-10-29T00:01:06.329Z,19.70
2022-10-29T00:03:41.820Z,19.60
2022-10-29T00:06:15.845Z,19.60
2022-10-29T00:08:51.416Z,19.70
2022-10-29T00:11:33.601Z,19.60
2022-10-29T00:14:03.178Z,19.60
2022-10-29T00:16:36.461Z,19.60
2022-10-29T00:19:07.158Z,19.50
2022-10-29T00:21:39.672Z,19.60
2022-10-29T00:24:15.242Z,19.60
2022-10-29T00:26:55.098Z,19.70
2022-10-29T00:29:27.623Z,19.60
2022-10-29T00:32:00.231Z,19.60
2022-10-29T00:34:38.199Z,19.60
2022-10-29T00:37:22.034Z,19.60
2022-10-29T00:40:01.027Z,19.70
2022-10-29T00:42:40.150Z,19.60
2022-10-29T00:45:19.542Z,19.60
2022-10-29T00:47:53.793Z,19.60
2022-10-29T00:50:31.120Z,19.60
2022-10-29T00:53:09.202Z,19.50
2022-10-29T00:55:49.528Z,19.50
2022-10-29T00:58:31.127Z,19.60
2022-10-29T01:01:00.457Z,19.60
2022-10-29T01:03:38.359Z,19.70
2022-10-29T01:06:12.078Z,19.60
2022-10-29T01:08:51.479Z,19.60
2022-10-29T01:11:57.838Z,19.60
2022-10-29T01:15:06.907Z,19.60
2022-10-29T01:18:06.137Z,19.60
2022-10-29T01:21:08.373Z,19.60
2022-10-29T01:23:48.324Z,19.60
2022-10-29T01:26:41.014Z,19.60
2022-10-29T01:29:42.776Z,19.60
2022-10-29T01:32:19.519Z,19.60
2022-10-29T01:35:19.838Z,19.60
2022-10-29T01:38:08.273Z,19.60
2022-10-29T01:41:01.786Z,19.60
2022-10-29T01:43:54.295Z,19.60
2022-10-29T01:47:00.443Z,19.60
2022-10-29T01:49:51.624Z,19.60
2022-10-29T01:52:23.211Z,19.60
2022-10-29T01:54:54.930Z,19.60
2022-10-29T01:57:38.487Z,19.60
2022-10-29T02:00:17.256Z,19.60
2022-10-29T02:03:20.549Z,19.70
2022-10-29T02:06:12.320Z,19.60
2022-10-29T02:09:22.050Z,19.60
2022-10-29T02:12:08.796Z,19.70
2022-10-29T02:14:46.654Z,19.70
2022-10-29T02:17:16.255Z,19.60
2022-10-29T02:19:53.624Z,19.50
2022-10-29T02:22:25.147Z,19.60
2022-10-29T02:24:56.432Z,19.60
2022-10-29T02:27:26.068Z,19.60
2022-10-29T02:29:58.701Z,19.60
2022-10-29T02:32:40.339Z,19.60
2022-10-29T02:35:21.486Z,19.60
2022-10-29T02:37:52.877Z,19.60
2022-10-29T02:40:32.521Z,19.60
2022-10-29T02:43:11.686Z,19.60
2022-10-29T02:45:43.818Z,19.70
2022-10-29T02:48:27.182Z,19.60
2022-10-29T02:51:00.241Z,19.60
2022-10-29T02:53:40.437Z,19.60
2022-10-29T02:58:55.877Z,19.50
2022-10-29T03:04:12.453Z,19.60
2022-10-29T03:06:44.448Z,19.60
2022-10-29T03:09:14.510Z,19.50
2022-10-29T03:11:58.338Z,19.60
2022-10-29T03:17:12.855Z,19.60
2022-10-29T03:19:50.058Z,19.60
2022-10-29T03:22:28.117Z,19.60
2022-10-29T03:25:05.109Z,19.50
2022-10-29T03:27:49.582Z,19.50
2022-10-29T03:30:33.252Z,19.60
2022-10-29T03:33:09.442Z,19.50
2022-10-29T03:35:49.876Z,19.50
2022-10-29T03:38:27.512Z,19.50
2022-10-29T03:41:00.406Z,19.50
2022-10-29T03:43:31.778Z,19.40
2022-10-29T03:46:09.842Z,19.50
2022-10-29T03:48:39.781Z,19.50
2022-10-29T03:51:17.277Z,19.40
2022-10-29T03:53:54.225Z,19.50
2022-10-29T03:56:26.015Z,19.40
2022-10-29T03:59:05.349Z,19.50
2022-10-29T04:01:33.449Z,19.50
2022-10-29T04:04:03.677Z,19.40
2022-10-29T04:06:31.828Z,19.40
2022-10-29T04:09:09.673Z,19.50
2022-10-29T04:14:26.935Z,19.60
2022-10-29T04:17:06.101Z,19.60
2022-10-29T04:24:12.066Z,19.50
2022-10-29T04:28:49.280Z,19.60
2022-10-29T04:31:23.004Z,19.50
2022-10-29T04:34:01.015Z,19.60
2022-10-29T04:36:37.611Z,19.60
2022-10-29T04:39:10.446Z,19.40
2022-10-29T04:41:43.188Z,19.50
2022-10-29T04:44:15.154Z,19.60
2022-10-29T04:46:54.154Z,19.60
2022-10-29T04:49:23.907Z,19.60
2022-10-29T04:51:55.671Z,19.60
2022-10-29T04:54:35.402Z,19.50
2022-10-29T04:59:48.179Z,19.60
2022-10-29T05:02:37.298Z,19.50
2022-10-29T05:05:06.442Z,19.50
2022-10-29T05:07:38.003Z,19.60
2022-10-29T05:10:11.612Z,19.50
2022-10-29T05:12:43.228Z,19.60
2022-10-29T05:15:24.079Z,19.50
2022-10-29T05:18:00.024Z,19.50
2022-10-29T05:20:33.661Z,19.60
2022-10-29T05:23:08.407Z,19.60
2022-10-29T05:25:49.981Z,19.60
2022-10-29T05:28:28.650Z,19.50
2022-10-29T05:31:06.382Z,19.60
2022-10-29T05:33:42.799Z,19.60
2022-10-29T05:36:24.107Z,19.60
2022-10-29T05:39:01.321Z,19.50
2022-10-29T05:41:33.935Z,19.60
2022-10-29T05:44:05.477Z,19.60
2022-10-29T05:46:44.348Z,19.60
2022-10-29T05:49:25.573Z,19.60
2022-10-29T05:52:05.273Z,19.50
2022-10-29T05:54:44.694Z,19.60
2022-10-29T05:57:13.802Z,19.60
2022-10-29T05:59:43.762Z,19.60
2022-10-29T06:02:15.507Z,19.60
2022-10-29T06:04:53.673Z,19.60
2022-10-29T06:07:32.871Z,19.60
2022-10-29T06:10:03.648Z,19.60
2022-10-29T06:12:37.733Z,19.60
2022-10-29T06:15:12.203Z,19.60
2022-10-29T06:17:54.770Z,19.60
2022-10-29T06:20:27.562Z,19.60
2022-10-29T06:23:01.738Z,19.60
2022-10-29T06:25:40.799Z,19.60
2022-10-29T06:28:30.350Z,19.50
2022-10-29T06:31:05.170Z,19.60
2022-10-29T06:33:45.327Z,19.60
2022-10-29T06:39:07.414Z,19.60
2022-10-29T06:41:38.419Z,19.70
2022-10-29T06:44:14.025Z,19.60
2022-10-29T06:46:47.714Z,19.60
2022-10-29T06:49:33.772Z,19.60
2022-10-29T06:52:13.331Z,19.60
2022-10-29T06:54:45.633Z,19.60
2022-10-29T06:57:24.546Z,19.70
2022-10-29T06:59:53.632Z,19.60
2022-10-29T07:02:25.717Z,19.60
2022-10-29T07:04:57.255Z,19.60
2022-10-29T07:07:29.671Z,19.70
2022-10-29T07:10:03.502Z,19.60
2022-10-29T07:12:32.678Z,19.60
2022-10-29T07:15:06.497Z,19.60
2022-10-29T07:17:41.652Z,19.60
2022-10-29T07:20:16.969Z,19.60
2022-10-29T07:22:49.211Z,19.60
2022-10-29T07:25:25.629Z,19.70
2022-10-29T07:27:58.102Z,19.70
2022-10-29T07:30:35.232Z,19.60
2022-10-29T07:33:06.638Z,19.60
2022-10-29T07:35:40.571Z,19.60
2022-10-29T07:38:14.641Z,19.70
2022-10-29T07:40:53.656Z,19.70
2022-10-29T07:43:24.934Z,19.80
2022-10-29T07:45:54.499Z,19.70
2022-10-29T07:48:34.620Z,19.70
2022-10-29T07:51:17.366Z,19.70
2022-10-29T07:53:53.902Z,19.70
2022-10-29T07:56:26.457Z,19.70
2022-10-29T07:59:01.156Z,19.70
2022-10-29T08:01:33.613Z,19.70
2022-10-29T08:04:11.026Z,19.80
2022-10-29T08:09:29.808Z,19.80
2022-10-29T08:12:04.549Z,19.80
2022-10-29T08:17:26.196Z,19.90
2022-10-29T08:19:59.129Z,19.90
2022-10-29T08:22:37.329Z,19.80
2022-10-29T08:25:08.162Z,19.80
2022-10-29T08:27:35.980Z,20.00
2022-10-29T08:30:15.723Z,20.10
2022-10-29T08:32:51.900Z,20.00
2022-10-29T08:35:23.664Z,20.00
2022-10-29T08:37:59.524Z,20.00
2022-10-29T08:40:39.301Z,20.00
2022-10-29T08:43:26.237Z,20.10
2022-10-29T08:46:01.283Z,20.00
2022-10-29T08:49:02.147Z,20.00
2022-10-29T08:51:56.060Z,20.10
2022-10-29T08:54:34.270Z,19.90
2022-10-29T08:57:16.279Z,19.90
2022-10-29T09:00:01.303Z,19.90
2022-10-29T09:02:31.824Z,20.00
2022-10-29T09:05:12.899Z,19.90
2022-10-29T09:08:12.164Z,20.00
2022-10-29T09:11:05.486Z,20.00
2022-10-29T09:13:55.169Z,20.00
2022-10-29T09:16:43.064Z,20.00
2022-10-29T09:19:39.073Z,20.00
2022-10-29T09:22:58.112Z,20.00
2022-10-29T09:29:13.393Z,20.00
2022-10-29T09:31:58.492Z,20.00
2022-10-29T09:34:48.209Z,20.00
2022-10-29T09:37:33.811Z,20.00
2022-10-29T09:40:12.544Z,20.00
2022-10-29T09:42:49.151Z,20.00
2022-10-29T09:45:40.172Z,20.00
2022-10-29T09:48:31.520Z,20.10
2022-10-29T09:51:41.025Z,20.10
2022-10-29T09:54:13.760Z,20.20
2022-10-29T09:56:55.695Z,20.20
2022-10-29T09:59:46.673Z,20.20
2022-10-29T10:02:44.219Z,20.20
2022-10-29T10:09:14.649Z,20.40
2022-10-29T10:11:59.452Z,20.30
2022-10-29T10:14:50.276Z,20.40
2022-10-29T10:17:54.461Z,20.40
2022-10-29T10:20:54.969Z,20.30
2022-10-29T10:23:53.276Z,20.40
2022-10-29T10:27:09.314Z,20.40
2022-10-29T10:29:44.189Z,20.30
2022-10-29T10:32:36.585Z,20.30
2022-10-29T10:35:37.223Z,20.30
2022-10-29T10:38:42.209Z,20.30
2022-10-29T10:41:43.178Z,20.30
2022-10-29T10:44:21.620Z,20.30
2022-10-29T10:49:54.079Z,20.20
2022-10-29T10:52:50.141Z,20.30
2022-10-29T10:55:48.538Z,20.20
2022-10-29T10:58:30.427Z,20.30
2022-10-29T11:01:33.257Z,20.30
2022-10-29T11:04:09.610Z,20.20
2022-10-29T11:06:46.878Z,20.20
2022-10-29T11:09:57.106Z,20.30
2022-10-29T11:13:05.257Z,20.30
2022-10-29T11:19:45.896Z,20.30
2022-10-29T11:28:40.108Z,20.20
2022-10-29T11:32:18.655Z,20.20
2022-10-29T11:35:06.598Z,20.20
2022-10-29T11:44:49.421Z,20.20
2022-10-29T11:47:38.638Z,20.10
2022-10-29T11:57:11.654Z,20.10
2022-10-29T12:10:25.135Z,20.10
2022-10-29T12:13:18.196Z,20.10
2022-10-29T12:16:43.559Z,20.20
2022-10-29T12:19:54.150Z,20.30
2022-10-29T12:23:03.686Z,20.20
2022-10-29T12:32:41.437Z,20.40
2022-10-29T12:42:06.640Z,20.30
2022-10-29T12:48:41.096Z,20.30
2022-10-29T12:51:24.552Z,20.30
2022-10-29T12:54:14.782Z,20.30
2022-10-29T12:59:58.564Z,20.50
2022-10-29T13:02:46.501Z,20.50
2022-10-29T13:05:53.189Z,20.60
2022-10-29T13:12:05.041Z,20.40
2022-10-29T13:17:48.116Z,20.50
2022-10-29T13:20:34.209Z,20.40
2022-10-29T13:23:43.911Z,20.40
2022-10-29T13:26:30.565Z,20.40
2022-10-29T13:35:02.623Z,20.30
2022-10-29T13:38:03.907Z,20.40
2022-10-29T13:40:39.140Z,20.30
2022-10-29T13:49:29.672Z,20.30
2022-10-29T13:52:38.517Z,20.30
2022-10-29T14:01:32.438Z,20.20
2022-10-29T14:04:39.895Z,20.20
2022-10-29T14:07:46.401Z,20.20
2022-10-29T14:16:40.845Z,20.20
2022-10-29T14:19:28.359Z,20.10
2022-10-29T14:22:35.853Z,20.10
2022-10-29T14:28:56.166Z,20.00
2022-10-29T14:32:00.150Z,20.00
2022-10-29T14:34:41.888Z,20.00
2022-10-29T14:40:41.645Z,19.90
2022-10-29T14:43:37.327Z,19.80
2022-10-29T14:49:35.610Z,19.80
2022-10-29T14:53:00.086Z,20.00
2022-10-29T14:55:44.218Z,19.80
2022-10-29T14:58:49.884Z,19.90
2022-10-29T15:01:23.398Z,19.90
2022-10-29T15:04:09.026Z,19.80
2022-10-29T15:06:46.453Z,19.80
2022-10-29T15:09:29.103Z,19.80
2022-10-29T15:30:59.384Z,19.70
2022-10-29T15:33:43.545Z,19.80
2022-10-29T15:36:17.215Z,19.70
2022-10-29T15:45:17.729Z,19.70
2022-10-29T15:48:18.950Z,19.80
2022-10-29T15:50:54.259Z,19.80
2022-10-29T15:53:35.420Z,19.70
2022-10-29T15:59:11.664Z,19.70
2022-10-29T16:01:52.978Z,19.70
2022-10-29T16:04:25.542Z,19.80
2022-10-29T16:07:07.366Z,19.70
2022-10-29T16:09:40.123Z,19.60
2022-10-29T16:15:00.366Z,19.60
2022-10-29T16:17:44.159Z,19.60
2022-10-29T16:23:09.178Z,19.50
2022-10-29T16:25:43.913Z,19.50
2022-10-29T16:31:53.983Z,19.50
2022-10-29T16:34:24.851Z,19.50
2022-10-29T16:37:19.896Z,19.50
2022-10-29T16:39:57.049Z,19.50
2022-10-29T16:43:00.704Z,19.50
2022-10-29T16:45:43.929Z,19.50
2022-10-29T16:51:28.351Z,19.50
2022-10-29T16:57:01.099Z,19.50
2022-10-29T16:59:33.959Z,19.50
2022-10-29T17:02:06.299Z,19.40
2022-10-29T17:04:49.475Z,19.50
2022-10-29T17:07:46.328Z,19.40
2022-10-29T17:16:14.964Z,19.40
2022-10-29T17:18:58.100Z,19.40
2022-10-29T17:22:00.004Z,19.40
2022-10-29T17:24:35.603Z,19.40
2022-10-29T17:27:25.384Z,19.40
2022-10-29T17:30:05.296Z,19.40
2022-10-29T17:32:54.638Z,19.40
2022-10-29T17:38:28.710Z,19.30
2022-10-29T17:41:07.318Z,19.30
2022-10-29T17:43:45.267Z,19.40
2022-10-29T17:46:28.899Z,19.30
2022-10-29T17:49:03.571Z,19.30
2022-10-29T17:51:40.840Z,19.30
2022-10-29T17:54:14.285Z,19.30
2022-10-29T17:56:54.972Z,19.40
2022-10-29T17:59:29.385Z,19.40
2022-10-29T18:02:00.520Z,19.40
2022-10-29T18:07:33.829Z,19.30
2022-10-29T18:15:56.668Z,19.30
2022-10-29T18:19:01.515Z,19.30
2022-10-29T18:24:35.620Z,19.30
2022-10-29T18:27:10.628Z,19.30
2022-10-29T18:29:55.361Z,19.30
2022-10-29T18:32:36.633Z,19.30
2022-10-29T18:35:14.416Z,19.20
2022-10-29T18:38:03.160Z,19.30
2022-10-29T18:40:55.547Z,19.30
2022-10-29T18:43:41.311Z,19.30
2022-10-29T18:46:12.887Z,19.30
2022-10-29T18:51:43.446Z,19.30
2022-10-29T18:54:27.152Z,19.30
2022-10-29T18:57:16.750Z,19.30
2022-10-29T18:59:48.291Z,19.30
2022-10-29T19:05:08.588Z,19.30
2022-10-29T19:07:47.341Z,19.20
2022-10-29T19:10:29.340Z,19.20
2022-10-29T19:15:55.495Z,19.20
2022-10-29T19:18:50.535Z,19.10
2022-10-29T19:21:30.656Z,19.10
2022-10-29T19:24:10.257Z,19.10
2022-10-29T19:27:02.887Z,19.20
2022-10-29T19:29:44.721Z,19.10
2022-10-29T19:32:19.318Z,19.20
2022-10-29T19:34:57.596Z,19.20
2022-10-29T19:37:34.289Z,19.20
2022-10-29T19:40:10.809Z,19.10
2022-10-29T19:42:50.957Z,19.10
2022-10-29T19:57:02.745Z,19.20
2022-10-29T19:59:38.681Z,19.20
2022-10-29T20:02:19.442Z,19.10
2022-10-29T20:04:52.097Z,19.10
2022-10-29T20:10:20.889Z,19.20
2022-10-29T20:15:53.895Z,19.20
2022-10-29T20:18:38.588Z,19.20
2022-10-29T20:21:34.172Z,19.20
2022-10-29T20:24:12.514Z,19.20
2022-10-29T20:26:54.307Z,19.10
2022-10-29T20:29:49.396Z,19.20
2022-10-29T20:35:10.567Z,19.20
2022-10-29T20:37:42.407Z,19.10
2022-10-29T20:40:18.668Z,19.10
2022-10-29T20:43:06.890Z,19.20
2022-10-29T20:45:52.200Z,19.20
2022-10-29T20:48:33.049Z,19.10
2022-10-29T20:51:08.680Z,19.10
2022-10-29T20:53:48.295Z,19.10
2022-10-29T20:56:25.846Z,19.10
2022-10-29T21:04:48.175Z,19.20
2022-10-29T21:10:25.586Z,19.10
2022-10-29T21:12:58.577Z,19.10
2022-10-29T21:15:54.118Z,19.20
2022-10-29T21:18:38.854Z,19.20
2022-10-29T21:21:11.197Z,19.10
2022-10-29T21:23:52.977Z,19.10
2022-10-29T21:29:32.356Z,19.10
2022-10-29T21:32:12.742Z,19.10
2022-10-29T21:34:47.098Z,19.10
2022-10-29T21:40:09.189Z,19.20
2022-10-29T21:42:48.701Z,19.20
2022-10-29T21:45:34.862Z,19.20
2022-10-29T21:48:07.399Z,19.20
2022-10-29T21:50:52.981Z,19.20
2022-10-29T21:53:29.036Z,19.20
2022-10-29T21:56:07.771Z,19.20
2022-10-29T21:58:39.600Z,19.20
2022-10-29T22:04:36.630Z,19.20
2022-10-29T22:07:06.650Z,19.20
2022-10-29T22:09:44.988Z,19.10
2022-10-29T22:12:18.179Z,19.20
2022-10-29T22:17:50.358Z,19.20
2022-10-29T22:20:21.618Z,19.10
2022-10-29T22:25:51.544Z,19.20
2022-10-29T22:28:20.245Z,19.20
2022-10-29T22:31:03.515Z,19.20
2022-10-29T22:33:47.914Z,19.20
2022-10-29T22:39:18.810Z,19.20
2022-10-29T22:41:53.933Z,19.20
2022-10-29T22:44:39.990Z,19.30
2022-10-29T22:50:19.878Z,19.20
2022-10-29T22:53:02.038Z,19.20
2022-10-29T22:55:42.551Z,19.20
2022-10-29T22:58:18.651Z,19.20
2022-10-29T23:01:16.547Z,19.20
2022-10-29T23:03:48.072Z,19.30
2022-10-29T23:06:35.468Z,19.20
2022-10-29T23:09:13.068Z,19.20
2022-10-29T23:11:50.910Z,19.20
2022-10-29T23:17:41.621Z,19.20
2022-10-29T23:20:21.325Z,19.20
2022-10-29T23:23:01.466Z,19.20
2022-10-29T23:25:41.965Z,19.30
2022-10-29T23:28:27.903Z,19.30
2022-10-29T23:31:05.383Z,19.30
2022-10-29T23:34:07.918Z,19.30
2022-10-29T23:36:45.017Z,19.20
2022-10-29T23:39:21.652Z,19.20
2022-10-29T23:41:59.794Z,19.30
2022-10-29T23:44:39.669Z,19.20
2022-10-29T23:47:29.636Z,19.20
2022-10-29T23:50:16.008Z,19.30
2022-10-29T23:56:00.843Z,19.20
2022-10-29T23:58:34.418Z,19.20
